Date,TemperatureHighF,TemperatureAvgF,TemperatureLowF,DewpointHighF,DewpointAvgF,DewpointLowF,HumidityHigh,HumidityAvg,HumidityLow,PressureMaxIn,PressureMinIn,WindSpeedMaxMPH,WindSpeedAvgMPH,GustSpeedMaxMPH,PrecipitationSumIn
2013-1-1,52,30,17,17,10,3,86,48,13,0.00,40.00,8,2,27,0.10
2013-1-2,55,36,25,25,16,3,82,48,26,0.00,40.00,2,0,15,0.06
2013-1-3,55,33,23,20,13,8,64,45,18,0.00,40.00,3,0,9,0.01
2013-1-4,57,35,24,30,20,12,96,57,20,0.00,40.00,3,0,12,0.00
2013-1-5,55,37,27,29,23,17,92,59,32,0.00,40.00,3,0,14,0.00
2013-1-6,34,30,25,32,28,22,100,91,70,0.00,40.00,4,0,10,0.04
2013-1-7,56,37,25,30,25,18,100,65,34,0.00,40.00,3,0,12,0.06
2013-1-8,66,41,32,34,25,16,79,55,27,0.00,40.00,2,0,9,0.03
2013-1-9,57,39,26,33,23,10,100,56,27,0.00,40.00,5,2,23,0.00
2013-1-10,32,24,17,31,20,12,100,88,53,0.00,40.00,3,0,11,0.00
2013-1-11,30,23,13,22,16,9,100,78,41,0.00,40.00,1,0,8,0.03
2013-1-12,39,20,5,16,6,-4,86,58,27,0.00,40.00,3,0,8,0.08
2013-1-13,39,20,5,8,-2,-10,67,40,21,0.00,40.00,6,1,22,0.03
2013-1-14,48,28,10,19,2,-9,53,35,17,0.00,40.00,7,2,22,0.06
2013-1-15,63,42,29,21,15,11,60,36,13,0.00,40.00,9,2,25,0.18
2013-1-16,66,46,33,14,3,-14,30,18,5,0.00,40.00,8,2,24,0.02
2013-1-17,70,40,30,18,6,-4,42,24,7,0.00,40.00,5,1,12,0.00
2013-1-18,64,38,28,19,8,-6,43,29,10,0.00,40.00,3,0,11,0.00
2013-1-19,65,40,27,19,9,-1,49,29,11,0.00,40.00,2,0,8,0.00
2013-1-20,67,38,28,17,6,-4,41,29,6,0.00,40.00,5,1,13,0.00
2013-1-21,70,42,30,20,12,3,49,31,9,0.00,40.00,5,0,11,0.00
2013-1-22,66,42,31,22,15,7,48,35,12,0.00,40.00,1,0,9,0.00
2013-1-23,59,44,34,33,16,6,92,36,12,0.00,40.00,3,0,14,0.00
2013-1-24,45,40,35,44,40,35,100,99,91,0.00,40.00,0,0,4,0.25
2013-1-25,52,41,36,50,40,36,100,96,65,0.00,40.00,0,0,6,0.23
2013-1-26,52,39,33,47,34,25,100,85,41,0.00,40.00,4,1,13,0.05
2013-1-27,42,31,23,33,24,14,100,78,38,0.00,40.00,3,1,11,0.08
2013-1-28,46,27,16,28,16,9,98,67,26,0.00,40.00,3,0,11,0.01
2013-1-29,59,38,28,28,23,20,90,56,29,0.00,40.00,5,1,24,0.00
2013-1-30,64,42,32,30,24,8,74,53,13,0.00,40.00,4,0,15,0.00
2013-1-31,63,46,30,28,21,16,61,41,18,0.00,40.00,2,0,9,0.00
2013-2-1,64,42,29,29,16,6,60,38,10,0.00,40.00,3,0,10,0.00
2013-2-2,56,40,32,32,20,12,65,47,29,0.00,40.00,0,0,7,0.00
2013-2-3,58,40,31,24,17,11,55,41,22,0.00,40.00,3,1,15,0.00
2013-2-4,62,42,31,28,20,12,73,44,18,0.00,40.00,3,1,9,0.00
2013-2-5,57,38,28,33,22,16,100,58,20,0.00,40.00,6,1,15,0.00
2013-2-6,55,35,24,28,13,-5,100,46,9,0.00,40.00,3,0,12,0.00
2013-2-7,37,28,24,32,22,11,100,79,48,0.00,40.00,3,0,10,0.00
2013-2-8,39,26,17,27,18,12,100,74,43,0.00,40.00,2,0,9,0.07
2013-2-9,47,30,20,25,14,6,91,56,18,0.00,40.00,3,1,15,0.02
2013-2-10,44,34,24,15,10,5,63,38,21,0.00,40.00,6,1,18,0.01
2013-2-11,51,35,26,16,8,0,56,33,14,0.00,40.00,7,2,25,0.00
2013-2-12,52,35,25,23,13,5,67,42,25,0.00,40.00,3,1,11,0.00
2013-2-13,57,40,29,23,17,13,55,40,23,0.00,40.00,7,1,18,0.00
2013-2-14,64,44,30,22,15,9,53,35,13,0.00,40.00,5,1,16,0.00
2013-2-15,66,44,32,24,16,7,53,34,14,0.00,40.00,4,1,11,0.00
2013-2-16,60,42,31,23,15,2,59,35,17,0.00,40.00,3,1,10,0.00
2013-2-17,57,38,28,24,16,8,72,42,20,0.00,40.00,4,1,10,0.00
2013-2-18,54,37,27,33,19,14,100,53,23,0.00,40.00,5,1,17,0.00
2013-2-19,36,28,19,32,20,12,100,74,43,0.00,40.00,5,1,17,0.00
2013-2-20,50,30,18,29,19,3,100,70,14,0.00,40.00,5,1,18,0.33
2013-2-21,48,33,23,27,17,4,100,61,16,0.00,40.00,6,1,18,0.05
2013-2-22,55,36,23,27,19,12,79,53,24,0.00,40.00,3,0,12,0.01
2013-2-23,41,34,29,30,20,2,92,59,28,0.00,40.00,4,2,19,0.03
2013-2-24,57,37,25,18,4,-6,55,28,8,0.00,40.00,7,1,19,0.02
2013-2-25,52,36,27,23,15,8,75,45,26,0.00,40.00,5,1,15,0.00
2013-2-26,58,37,23,18,2,-14,67,28,6,0.00,40.00,8,1,16,0.00
2013-2-27,56,39,28,18,8,1,57,30,13,0.00,40.00,4,1,11,0.00
2013-2-28,61,42,29,29,22,13,73,47,29,0.00,40.00,4,1,13,0.00
2013-3-1,68,47,32,35,29,22,80,54,20,0.00,40.00,4,1,11,0.00
2013-3-2,65,47,34,30,24,19,80,44,18,0.00,40.00,7,2,20,0.00
2013-3-3,43,38,32,40,37,28,100,96,54,0.00,40.00,0,0,7,0.47
2013-3-4,59,41,30,42,34,30,100,81,38,0.00,40.00,2,0,9,0.01
2013-3-5,52,44,31,38,28,22,100,58,38,0.00,40.00,7,3,20,0.00
2013-3-6,42,33,29,33,28,20,100,85,49,0.00,40.00,7,1,24,0.01
2013-3-7,46,33,28,33,29,24,100,88,42,0.00,40.00,0,0,11,0.33
2013-3-8,52,33,24,38,27,21,100,85,29,0.00,40.00,4,0,14,0.34
2013-3-9,55,36,24,34,22,7,100,67,15,0.00,40.00,5,1,13,0.72
2013-3-10,68,42,26,33,21,2,79,47,7,0.00,40.00,3,1,24,0.03
2013-3-11,68,44,31,37,24,14,97,49,15,0.00,40.00,3,0,9,0.01
2013-3-12,70,48,33,37,30,21,83,53,24,0.00,40.00,3,0,11,0.00
2013-3-13,76,51,35,40,31,14,100,56,10,0.00,40.00,4,1,13,0.00
2013-3-14,72,54,35,38,30,21,73,46,17,0.00,40.00,6,1,15,0.00
2013-3-15,68,50,34,37,27,9,65,45,10,0.00,40.00,4,1,12,0.00
2013-3-16,65,47,33,29,21,15,67,40,14,0.00,40.00,4,1,14,0.00
2013-3-17,62,45,30,29,21,7,77,46,13,0.00,40.00,4,1,14,0.00
2013-3-18,61,44,31,30,21,10,80,45,16,0.00,40.00,4,1,13,0.00
2013-3-19,60,46,39,41,30,24,100,57,27,0.00,40.00,4,1,15,0.14
2013-3-20,46,39,33,41,38,33,100,95,76,0.00,40.00,3,0,10,0.86
2013-3-21,55,42,31,39,32,24,100,75,37,0.00,40.00,4,1,12,0.05
2013-3-22,56,39,27,33,19,5,100,50,15,0.00,40.00,4,1,13,0.00
2013-3-23,60,41,27,19,9,-5,51,31,7,0.00,40.00,4,1,11,0.00
2013-3-24,64,45,31,30,23,17,76,46,18,0.00,40.00,4,1,11,0.00
2013-3-25,65,45,29,29,20,8,69,42,11,0.00,40.00,4,1,13,0.00
2013-3-26,54,46,33,41,31,20,100,59,40,0.00,40.00,3,0,12,0.00
2013-3-27,59,44,33,40,34,29,100,75,35,0.00,40.00,5,1,15,0.00
2013-3-28,61,46,35,42,38,30,100,79,33,0.00,40.00,5,1,11,0.39
2013-3-29,67,48,32,45,36,31,100,72,26,0.00,40.00,4,0,14,0.32
2013-3-30,62,47,35,50,39,-100,100,85,36,0.00,40.00,3,0,9,0.25
2013-3-31,52,41,33,44,37,30,100,87,45,0.00,40.00,3,0,13,0.72
2013-4-1,48,39,32,42,35,32,100,88,58,0.00,40.00,1,0,12,0.32
2013-4-2,62,43,31,41,35,29,100,78,33,0.00,40.00,4,1,10,0.01
2013-4-3,68,47,32,45,38,31,100,76,31,0.00,40.00,4,1,12,0.00
2013-4-4,53,45,37,46,41,31,100,86,60,0.00,40.00,3,0,13,0.40
2013-4-5,56,44,33,45,36,31,100,76,42,0.00,40.00,5,1,13,0.01
2013-4-6,56,44,36,43,36,26,100,76,47,0.00,40.00,5,1,12,0.01
2013-4-7,58,45,37,41,33,26,100,69,36,0.00,40.00,5,2,23,0.00
2013-4-8,48,37,32,35,24,13,100,64,29,0.00,40.00,5,2,21,0.26
2013-4-9,58,44,31,16,9,5,44,27,12,0.00,40.00,6,3,26,0.08
2013-4-10,72,57,36,36,25,9,68,31,18,0.00,40.00,5,2,27,0.00
2013-4-11,70,54,37,42,36,26,100,56,19,0.00,40.00,5,1,14,0.00
2013-4-12,70,54,33,38,31,23,79,46,20,0.00,40.00,3,1,12,0.00
2013-4-13,68,53,36,42,35,30,100,56,27,0.00,40.00,4,2,14,0.00
2013-4-14,61,49,33,39,27,21,100,48,22,0.00,40.00,6,2,17,0.00
2013-4-15,49,37,28,34,28,21,100,75,33,0.00,40.00,5,1,18,0.00
2013-4-16,48,33,24,32,21,8,100,68,24,0.00,40.00,5,1,17,0.66
2013-4-17,51,37,25,18,11,4,69,39,16,0.00,40.00,8,1,17,0.08
2013-4-18,63,47,29,29,17,4,67,32,18,0.00,40.00,5,2,16,0.02
2013-4-19,67,52,32,32,27,19,69,41,21,0.00,40.00,4,1,13,0.00
2013-4-20,75,56,33,33,27,19,84,40,12,0.00,40.00,5,1,12,0.00
2013-4-21,75,58,35,36,29,20,65,37,15,0.00,40.00,5,1,13,0.00
2013-4-22,76,57,39,39,32,19,73,44,16,0.00,40.00,6,1,18,0.00
2013-4-23,76,55,39,30,18,2,58,25,11,0.00,40.00,8,3,23,0.00
2013-4-24,71,55,38,26,12,5,58,22,9,0.00,40.00,8,4,22,0.00
2013-4-25,70,55,36,32,23,11,54,31,16,0.00,40.00,4,1,13,0.00
2013-4-26,77,56,37,37,29,18,60,40,11,0.00,40.00,5,1,16,0.00
2013-4-27,78,61,41,41,32,24,63,38,14,0.00,40.00,4,1,12,0.00
2013-4-28,78,63,37,40,30,14,67,33,14,0.00,40.00,3,1,11,0.00
2013-4-29,77,60,42,40,35,30,64,42,22,0.00,40.00,5,1,13,0.00
2013-4-30,76,62,42,42,34,4,66,38,13,0.00,40.00,8,2,16,0.00
2013-5-1,72,56,44,7,-1,-7,13,10,6,0.00,40.00,9,5,26,0.00
2013-5-2,79,61,37,32,20,-4,46,22,9,0.00,40.00,4,1,22,0.00
2013-5-3,80,58,43,38,30,23,54,38,13,0.00,40.00,3,0,13,0.00
2013-5-4,74,61,44,25,20,11,47,22,12,0.00,40.00,7,3,21,0.00
2013-5-5,65,51,43,37,30,22,70,45,23,0.00,40.00,7,2,20,0.00
2013-5-6,47,43,37,45,41,34,100,92,69,0.00,40.00,0,0,5,1.05
2013-5-7,49,43,39,45,41,36,100,95,71,0.00,40.00,1,0,7,0.41
2013-5-8,60,48,41,49,45,41,100,92,64,0.00,40.00,3,0,14,0.36
2013-5-9,67,53,38,51,45,38,100,78,49,0.00,40.00,4,1,13,0.01
2013-5-10,77,62,42,52,44,34,100,62,25,0.00,40.00,5,1,14,0.00
2013-5-11,84,63,46,52,40,-100,99,51,11,0.00,40.00,3,1,13,0.00
2013-5-12,82,65,46,45,36,30,69,38,16,0.00,40.00,5,1,18,0.00
2013-5-13,81,67,46,42,33,28,55,32,17,0.00,40.00,5,2,20,0.00
2013-5-14,78,59,47,49,38,30,88,51,19,0.00,40.00,7,1,21,0.01
2013-5-15,73,56,42,47,30,14,92,46,11,0.00,40.00,8,2,20,0.01
2013-5-16,51,42,39,45,18,-100,100,71,51,0.00,40.00,2,0,11,0.09
2013-5-17,64,48,35,43,33,-100,100,70,32,0.00,40.00,5,1,12,0.04
2013-5-18,67,50,32,37,27,20,100,48,20,0.00,40.00,5,2,13,0.00
2013-5-19,73,55,35,38,31,21,90,48,14,0.00,40.00,5,1,14,0.00
2013-5-20,77,61,39,33,25,16,50,28,12,0.00,40.00,4,2,14,0.00
2013-5-21,69,57,40,33,27,16,62,35,17,0.00,40.00,8,3,21,0.00
2013-5-22,57,47,32,28,19,13,69,37,17,0.00,40.00,6,2,17,0.00
2013-5-23,58,43,28,26,19,4,58,41,13,0.00,40.00,5,1,15,0.00
2013-5-24,66,49,31,31,23,15,61,38,23,0.00,40.00,6,2,16,0.00
2013-5-25,67,53,33,32,26,19,66,39,18,0.00,40.00,5,2,23,0.00
2013-5-26,66,54,33,36,30,23,77,45,24,0.00,40.00,6,2,15,0.00
2013-5-27,62,46,33,48,37,24,100,74,29,0.00,40.00,3,0,13,0.17
2013-5-28,64,53,44,48,43,37,100,76,38,0.00,40.00,3,1,10,0.40
2013-5-29,65,53,43,52,44,39,100,77,41,0.00,40.00,4,1,13,0.07
2013-5-30,70,56,35,45,34,25,100,53,21,0.00,40.00,5,1,14,0.03
2013-5-31,83,65,38,42,34,18,68,36,9,0.00,40.00,4,1,16,0.00
2013-6-1,85,69,45,42,34,23,53,30,15,0.00,40.00,4,1,14,0.00
2013-6-2,85,67,48,44,37,32,59,37,15,0.00,40.00,5,1,14,0.00
2013-6-3,87,69,50,46,38,31,58,35,14,0.00,40.00,5,1,15,0.00
2013-6-4,88,71,52,47,42,30,67,38,18,0.00,40.00,5,1,14,0.00
2013-6-5,88,72,52,52,44,33,61,40,19,0.00,40.00,4,1,12,0.00
2013-6-6,91,69,53,48,42,30,61,41,14,0.00,40.00,5,0,22,0.00
2013-6-7,94,73,53,47,36,30,50,30,11,0.00,40.00,5,1,12,0.00
2013-6-8,98,77,57,54,40,24,57,30,12,0.00,40.00,6,1,15,0.00
2013-6-9,92,73,60,55,46,36,70,41,20,0.00,40.00,4,1,13,0.00
2013-6-10,74,62,50,54,45,30,96,57,25,0.00,40.00,5,2,14,0.00
2013-6-13,73,65,44,28,21,2,45,21,7,0.00,40.00,5,2,16,0.00
2013-6-14,78,65,43,34,27,16,48,26,11,0.00,40.00,4,2,17,0.00
2013-6-15,77,64,42,35,29,22,51,30,15,0.00,40.00,6,2,14,0.00
2013-6-16,77,65,43,34,29,16,49,28,11,0.00,40.00,5,2,13,0.00
2013-6-17,77,64,42,34,30,21,52,30,16,0.00,40.00,6,2,16,0.00
2013-6-18,72,61,39,34,28,21,58,31,19,0.00,40.00,7,3,19,0.00
2013-6-19,67,56,33,27,24,15,63,31,19,0.00,40.00,5,2,14,0.00
2013-6-20,70,53,35,28,23,18,59,34,16,0.00,40.00,4,1,11,0.00
2013-6-22,79,70,52,37,32,26,44,26,17,0.00,40.00,5,2,17,0.00
2013-6-23,69,58,46,46,35,26,92,46,24,0.00,40.00,5,1,15,0.00
2013-6-24,54,49,46,54,48,40,100,95,69,0.00,40.00,3,0,13,0.88
2013-6-25,63,55,49,59,54,49,100,95,67,0.00,40.00,3,0,16,0.62
2013-6-26,78,65,49,62,54,49,100,72,42,0.00,40.00,4,1,13,0.06
2013-7-4,93,79,65,55,49,42,59,37,22,0.00,40.00,5,2,16,0.00
2013-7-5,89,78,59,52,39,26,60,28,11,0.00,40.00,7,3,21,0.00
2013-7-6,88,74,55,45,37,31,50,28,15,0.00,40.00,6,2,19,0.00
2013-7-7,88,79,56,45,37,33,48,24,15,0.00,40.00,5,2,16,0.00
2013-7-8,88,72,51,41,36,30,45,29,14,0.00,40.00,6,2,17,0.00
2013-7-9,87,78,54,45,34,29,42,23,15,0.00,40.00,5,3,16,0.00
2013-7-10,87,75,55,45,32,-100,49,24,14,0.00,40.00,7,3,18,0.00
2013-7-11,85,70,55,46,38,33,57,34,16,0.00,40.00,6,2,18,0.00
2013-7-12,84,72,49,48,39,29,61,33,15,0.00,40.00,5,3,14,0.00
2013-7-13,83,70,47,40,36,28,60,33,15,0.00,40.00,5,2,13,0.00
2013-7-14,88,75,52,47,40,30,58,31,14,0.00,40.00,6,3,15,0.00
2013-7-15,85,77,55,47,44,41,58,33,23,0.00,40.00,5,2,14,0.00
2013-7-16,81,74,53,42,39,33,63,31,18,0.00,40.00,6,4,17,0.00
2013-7-17,84,72,47,44,39,28,70,34,17,0.00,40.00,5,2,12,0.00
2013-7-18,87,75,50,47,44,38,63,35,20,0.00,40.00,4,2,12,0.00
2013-7-19,92,79,54,50,46,38,59,35,20,0.00,40.00,5,2,14,0.00
2013-7-20,96,78,57,52,44,-100,60,34,15,0.00,40.00,4,2,12,0.00
2013-7-21,95,80,60,56,52,49,69,40,26,0.00,40.00,5,2,12,0.00
2013-7-22,89,75,58,56,46,41,70,38,21,0.00,40.00,4,2,11,0.00
2013-7-23,82,70,59,61,53,43,100,58,32,0.00,40.00,3,2,9,0.16
2013-7-24,87,76,54,56,51,48,84,45,28,0.00,40.00,4,2,14,0.00
2013-7-25,89,74,57,55,52,46,77,49,32,0.00,40.00,8,2,19,0.00
2013-7-26,88,72,59,57,51,47,71,50,28,0.00,40.00,5,2,13,0.00
2013-7-27,87,75,57,49,46,42,69,38,22,0.00,40.00,5,2,14,0.00
2013-7-28,85,72,55,50,43,36,68,39,19,0.00,40.00,5,2,16,0.00
2013-7-29,85,68,51,43,39,32,64,39,17,0.00,40.00,6,2,20,0.00
2013-7-30,84,72,52,48,40,36,62,34,18,0.00,40.00,5,3,16,0.00
2013-7-31,82,70,54,45,40,36,55,36,21,0.00,40.00,5,2,14,0.00
2013-8-1,79,66,49,32,26,18,52,25,11,0.00,40.00,7,3,18,0.00
2013-8-2,80,69,44,35,27,17,48,24,11,0.00,40.00,5,3,13,0.00
2013-8-3,81,68,47,42,37,33,59,35,20,0.00,40.00,5,2,15,0.00
2013-8-4,84,71,47,41,36,32,55,31,18,0.00,40.00,6,3,16,0.00
2013-8-5,85,72,51,40,36,29,58,29,16,0.00,40.00,4,2,14,0.00
2013-8-6,83,69,50,40,37,32,55,34,20,0.00,40.00,5,2,13,0.00
2013-8-7,79,66,52,45,41,35,66,42,23,0.00,40.00,5,3,15,0.00
2013-8-8,73,60,48,43,40,38,74,52,30,0.00,40.00,5,2,20,0.00
2013-8-9,77,63,48,45,38,29,71,44,18,0.00,40.00,5,3,16,0.00
2013-8-10,78,66,46,41,37,31,66,38,18,0.00,40.00,6,3,15,0.00
2013-8-11,79,67,44,41,37,32,73,37,21,0.00,40.00,6,2,15,0.00
2013-8-12,81,68,48,41,38,35,67,37,20,0.00,40.00,6,3,15,0.00
2013-8-13,86,73,49,37,31,-100,60,25,13,0.00,40.00,5,3,15,0.00
2013-8-14,86,71,49,35,30,-100,49,26,12,0.00,40.00,5,2,16,0.00
2013-8-15,88,64,49,35,12,-100,45,19,6,0.00,40.00,6,3,18,0.00
2013-8-16,88,72,49,34,25,-100,42,20,10,0.00,40.00,5,3,14,0.00
2013-8-17,88,74,53,41,34,-100,46,27,15,0.00,40.00,5,3,14,0.00
2013-8-18,90,71,56,45,41,38,54,37,19,0.00,40.00,4,2,12,0.00
2013-8-19,89,71,62,55,33,-100,57,37,22,0.00,40.00,4,2,14,0.01
2013-8-20,87,73,61,50,42,-100,54,38,20,0.00,40.00,5,2,15,0.00
2013-8-21,87,72,57,52,47,43,72,44,22,0.00,40.00,6,2,16,0.03
2013-8-22,83,71,54,50,40,36,70,36,19,0.00,40.00,6,3,20,0.00
2013-8-23,79,69,47,41,38,33,58,34,21,0.00,40.00,5,3,18,0.00
2013-8-24,79,65,48,41,34,-100,66,36,17,0.00,40.00,6,3,16,0.00
2013-8-25,77,66,49,44,42,36,72,44,29,0.00,40.00,8,4,20,0.00
2013-8-26,80,67,48,47,43,38,75,46,23,0.00,40.00,6,3,18,0.00
2013-8-27,75,67,50,45,41,33,69,40,23,0.00,40.00,3,2,9,0.00
2013-8-28,82,73,58,52,46,42,56,40,27,0.00,40.00,5,3,17,0.00
2013-8-29,83,74,53,47,40,35,69,32,19,0.00,40.00,7,4,19,0.00
2013-8-30,89,75,51,48,38,28,65,31,11,0.00,40.00,7,3,17,0.00
2013-8-31,86,73,53,40,35,-100,41,27,17,0.00,40.00,5,2,16,0.00
2013-9-1,81,67,56,48,43,34,66,43,30,0.00,40.00,5,2,15,0.00
2013-9-2,80,68,58,55,52,47,84,59,40,0.00,40.00,7,2,18,0.00
2013-9-3,82,69,56,52,51,48,78,55,34,0.00,40.00,6,3,20,0.00
2013-9-4,84,72,52,52,49,45,78,47,30,0.00,40.00,5,2,17,0.00
2013-9-5,80,69,53,50,44,38,74,43,26,0.00,40.00,6,3,19,0.00
2013-9-6,84,74,55,45,41,39,64,33,22,0.00,40.00,7,3,16,0.00
2013-9-7,86,72,51,42,36,-100,56,30,16,0.00,40.00,5,2,15,0.00
2013-9-8,87,76,56,41,32,24,56,22,14,0.00,40.00,5,3,13,0.00
2013-9-9,89,76,56,39,34,29,44,24,12,0.00,40.00,5,2,13,0.00
2013-9-10,89,74,58,40,34,25,48,26,11,0.00,40.00,6,2,13,0.00
2013-9-11,82,69,53,43,41,39,59,38,24,0.00,40.00,5,2,13,0.00
2013-9-12,81,68,53,47,42,38,59,42,22,0.00,40.00,5,2,13,0.00
2013-9-13,86,68,53,50,46,43,69,48,24,0.00,40.00,4,1,15,0.00
2013-9-14,84,68,53,47,43,-100,65,44,26,0.00,40.00,4,2,17,0.00
2013-9-15,83,68,54,45,40,37,66,39,22,0.00,40.00,7,3,19,0.00
2013-9-16,83,72,54,46,40,37,68,35,20,0.00,40.00,7,3,18,0.00
2013-9-17,72,60,43,45,36,23,74,44,16,0.00,40.00,8,4,22,0.00
2013-9-18,57,51,39,36,31,24,63,48,40,0.00,40.00,3,2,10,0.00
2013-9-19,81,68,43,34,28,19,47,25,12,0.00,40.00,5,3,16,0.00
2013-9-20,75,62,45,40,32,21,76,37,16,0.00,40.00,7,3,19,0.00
2013-9-21,55,42,34,47,38,-100,99,90,60,0.00,40.00,5,2,15,1.17
2013-9-22,62,45,33,44,39,33,99,83,46,0.00,40.00,4,1,11,0.01
2013-9-23,74,60,38,45,39,30,98,53,22,0.00,40.00,4,2,13,0.01
2013-9-24,69,59,42,45,41,35,93,55,29,0.00,40.00,6,3,19,0.00
2013-9-25,54,43,32,40,32,28,93,68,40,0.00,40.00,5,2,13,0.00
2013-9-26,59,43,32,29,25,21,86,53,26,0.00,40.00,5,2,14,0.00
2013-10-2,67,54,39,42,33,26,91,50,21,0.00,40.00,6,3,17,0.00
2013-10-3,60,51,41,30,18,9,58,29,20,0.00,40.00,9,4,26,0.00
2013-10-4,65,50,39,17,10,4,37,23,9,0.00,40.00,7,3,24,0.00
2013-10-5,73,59,40,26,18,4,42,22,11,0.00,40.00,5,2,14,0.00
2013-10-6,74,59,40,27,20,15,48,25,12,0.00,40.00,4,2,11,0.00
2013-10-7,71,61,39,22,18,9,47,22,10,0.00,40.00,5,3,14,0.00
2013-10-8,66,56,41,27,24,20,55,31,18,0.00,40.00,6,2,17,0.00
2013-10-9,54,44,36,36,29,25,85,56,35,0.00,40.00,5,2,17,0.00
2013-10-10,60,47,32,36,33,28,89,63,37,0.00,40.00,5,2,12,0.00
2013-10-11,64,49,31,34,31,26,92,56,24,0.00,40.00,5,2,11,0.00
2013-10-12,63,47,33,34,30,-100,86,57,24,0.00,40.00,5,2,16,0.00
2013-10-13,63,46,34,39,33,27,98,65,25,0.00,40.00,5,2,12,0.07
2013-10-14,68,48,31,29,24,16,74,44,14,0.00,40.00,3,2,10,0.01
2013-10-15,66,54,36,25,17,13,54,27,13,0.00,40.00,5,3,16,0.00
2013-10-16,68,53,33,29,23,4,58,34,19,0.00,40.00,5,2,13,0.00
2013-10-17,70,54,34,28,25,16,68,38,14,0.00,40.00,4,2,10,0.00
2013-10-18,75,60,37,29,25,16,48,29,12,0.00,40.00,5,2,12,0.00
2013-10-19,73,53,39,29,23,-100,58,36,15,0.00,40.00,4,2,13,0.00
2013-10-20,77,56,38,31,25,18,50,33,12,0.00,40.00,4,2,11,0.00
2013-10-21,77,61,43,28,23,15,42,25,10,0.00,40.00,4,2,12,0.00
2013-10-22,76,58,40,23,17,13,38,23,9,0.00,40.00,5,2,11,0.00
2013-10-23,76,54,41,26,20,17,42,29,12,0.00,40.00,5,2,15,0.00
2013-10-24,74,53,38,26,20,17,44,30,12,0.00,40.00,5,2,15,0.00
2013-10-25,73,51,37,22,18,15,43,30,11,0.00,40.00,4,2,12,0.00
2013-10-26,75,53,38,27,18,-100,41,28,10,0.00,40.00,4,1,13,0.00
2013-10-27,69,50,37,34,21,14,79,35,16,0.00,40.00,7,3,21,0.00
2013-10-28,39,34,32,36,31,-100,99,95,79,0.00,40.00,4,1,19,0.61
2013-10-29,39,34,31,37,34,31,100,97,90,0.00,40.00,0,0,2,0.34
2013-10-30,54,37,27,40,31,25,99,83,48,0.00,40.00,3,1,7,0.03
2013-10-31,64,46,31,40,32,26,95,64,31,0.00,40.00,5,2,10,0.02
2013-11-1,67,45,31,35,28,20,79,54,22,0.00,40.00,5,1,11,0.00
2013-11-2,65,46,33,34,26,-100,76,52,22,0.00,40.00,5,2,14,0.00
2013-11-3,56,46,33,41,37,30,91,74,55,0.00,40.00,4,2,12,0.00
2013-11-4,52,40,29,35,18,11,95,47,21,0.00,40.00,8,3,23,0.00
2013-11-5,62,44,31,30,19,11,68,40,15,0.00,40.00,4,2,12,0.00
2013-11-6,65,48,35,37,30,24,72,53,29,0.00,40.00,4,2,10,0.00
2013-11-7,67,58,37,32,21,15,66,29,13,0.00,40.00,5,3,13,0.00
2013-11-8,66,62,50,31,26,23,47,26,19,0.00,40.00,4,3,13,0.00
2013-11-9,66,57,46,35,26,-100,53,34,26,0.00,40.00,4,2,10,0.00
2013-11-10,71,64,37,28,20,11,62,21,10,0.00,40.00,3,2,11,0.00
2013-11-11,73,57,35,27,18,8,38,24,12,0.00,40.00,3,2,9,0.00
2013-11-12,66,59,41,36,26,21,59,30,18,0.00,40.00,4,2,12,0.00
2013-11-13,70,57,39,39,34,26,76,46,27,0.00,40.00,4,2,10,0.00
2013-11-14,66,50,35,33,27,18,69,43,23,0.00,40.00,4,2,11,0.00
2013-11-15,58,42,31,35,30,26,89,65,29,0.00,40.00,5,1,13,0.00
2013-11-16,55,44,33,32,27,-100,92,57,32,0.00,40.00,4,2,11,0.00
2013-11-17,57,42,29,36,31,22,93,69,34,0.00,40.00,4,1,11,0.00
2013-11-18,56,44,29,36,32,26,92,66,42,0.00,40.00,5,2,15,0.00
2013-11-19,50,42,37,42,39,32,98,89,74,0.00,40.00,2,0,7,0.24
2013-11-20,43,38,33,42,38,32,99,97,93,0.00,40.00,1,0,5,1.58
2013-11-21,39,34,31,35,24,14,99,69,46,0.00,40.00,13,8,51,0.34
2013-11-22,44,38,31,14,6,2,46,26,19,0.00,40.00,17,8,47,0.01
2013-11-23,51,42,31,13,8,-100,46,27,19,0.00,40.00,9,4,21,0.00
2013-11-24,52,41,29,31,22,11,82,49,29,0.00,40.00,4,2,11,0.00
2013-11-25,56,39,28,36,25,17,92,60,40,0.00,40.00,4,2,12,0.00
2013-11-26,62,43,32,35,26,16,82,53,18,0.00,40.00,3,1,10,0.00
2013-11-27,58,43,32,31,26,22,75,54,32,0.00,40.00,3,1,11,0.00
2013-11-28,56,41,31,33,28,25,87,64,34,0.00,40.00,4,1,9,0.00
2013-11-29,59,40,29,33,29,25,89,69,30,0.00,40.00,4,1,11,0.00
2013-11-30,59,39,29,35,26,-100,85,65,37,0.00,40.00,3,1,10,0.00
2013-12-1,63,43,31,37,28,23,74,57,24,0.00,40.00,4,1,9,0.00
2013-12-2,62,46,35,31,25,20,73,47,20,0.00,40.00,3,2,14,0.00
2013-12-3,45,33,19,39,28,10,97,82,58,0.00,40.00,4,2,22,0.22
2013-12-4,38,24,15,20,12,4,89,64,26,0.00,40.00,4,2,10,0.07
2013-12-5,35,22,12,15,10,5,86,64,28,0.00,40.00,4,1,9,0.02
2013-12-6,31,25,13,22,13,8,92,63,38,0.00,40.00,5,2,13,0.00
2013-12-7,25,21,12,22,16,-100,93,87,79,0.00,40.00,5,2,14,0.00
2013-12-8,31,17,5,21,11,0,89,77,59,0.00,40.00,3,2,11,0.23
2013-12-9,45,29,19,27,20,13,93,71,30,0.00,40.00,3,1,15,0.14
2013-12-10,55,36,23,31,22,11,79,58,37,0.00,40.00,4,2,10,0.04
2013-12-11,58,46,28,23,18,10,69,36,15,0.00,40.00,4,2,8,0.00
2013-12-12,57,39,26,21,16,11,71,43,16,0.00,40.00,4,2,9,0.00
2013-12-13,55,43,24,24,17,8,60,38,19,0.00,40.00,4,2,11,0.00
2013-12-14,60,40,28,26,16,-100,56,42,17,0.00,40.00,3,1,8,0.00
2013-12-15,67,45,33,28,22,16,60,42,20,0.00,40.00,3,1,9,0.00
2013-12-16,71,49,36,32,23,18,56,38,14,0.00,40.00,3,2,10,0.00
2013-12-17,65,47,37,37,27,20,58,46,34,0.00,40.00,4,2,9,0.00
2013-12-18,62,49,34,38,31,25,81,53,28,0.00,40.00,5,2,19,0.00
2013-12-19,41,34,29,32,21,8,97,61,40,0.00,40.00,9,3,27,0.07
2013-12-20,53,36,23,26,14,-13,76,45,8,0.00,40.00,9,2,18,0.02
2013-12-21,59,40,30,31,22,-100,92,56,22,0.00,40.00,5,2,12,0.00
2013-12-22,60,44,30,31,24,15,76,48,31,0.00,40.00,4,2,14,0.00
2013-12-23,59,44,31,31,28,21,79,56,31,0.00,40.00,3,1,11,0.00
2013-12-24,65,44,33,33,23,11,69,46,14,0.00,40.00,3,1,11,0.00
2013-12-25,65,49,33,25,16,2,44,29,11,0.00,40.00,4,1,8,0.00
2013-12-26,66,47,32,29,17,8,46,32,17,0.00,40.00,4,2,10,0.00
2013-12-27,62,46,34,30,18,6,42,31,22,0.00,40.00,3,1,9,0.00
2013-12-28,58,44,29,11,6,-100,36,23,13,0.00,40.00,9,4,23,0.00
2013-12-29,65,47,34,25,12,-12,56,29,8,0.00,40.00,7,2,24,0.00
2013-12-30,60,50,31,29,20,17,56,34,19,0.00,40.00,5,2,10,0.00
2013-12-31,60,51,35,27,20,11,52,32,14,0.00,40.00,4,2,8,0.00